Time;durP1;ratioP1;P1;durP2;ratioP2;P2;SDS_P1;SDS_P2;PMS_P1;PMS_P2;Temp;Humidity;BMP_temperature;BMP_pressure;BME280_temperature;BME280_humidity;BME280_pressure;Samples;Min_cycle;Max_cycle;Signal;HPM_P1;HPM_P2
2023/01/23 00:00:52;;;;;;;4.07;2.15;;;2.80;99.90;;;;;;5101916;27;20359;-83
2023/01/23 00:03:18;;;;;;;4.78;1.92;;;2.90;99.90;;;;;;5079690;27;20610;-82
2023/01/23 00:05:44;;;;;;;5.47;2.33;;;3.20;99.90;;;;;;5087587;27;22325;-82
2023/01/23 00:08:10;;;;;;;4.70;2.42;;;2.90;99.90;;;;;;5087489;27;20075;-83
2023/01/23 00:10:39;;;;;;;6.85;2.40;;;2.80;99.90;;;;;;5113405;27;20047;-81
2023/01/23 00:13:05;;;;;;;7.28;3.10;;;2.80;99.90;;;;;;5087310;27;20443;-81
2023/01/23 00:15:32;;;;;;;7.25;2.50;;;2.80;99.90;;;;;;5095458;27;20060;-82
2023/01/23 00:17:58;;;;;;;4.97;2.50;;;2.80;99.90;;;;;;5096275;27;20155;-83
2023/01/23 00:20:24;;;;;;;5.35;2.50;;;2.80;99.90;;;;;;5084802;28;20042;-81
2023/01/23 00:22:49;;;;;;;4.45;2.33;;;2.80;99.90;;;;;;5094697;28;20050;-82
2023/01/23 00:25:15;;;;;;;6.40;2.63;;;2.80;99.90;;;;;;5080758;28;20940;-81
2023/01/23 00:27:41;;;;;;;4.65;2.50;;;2.80;99.90;;;;;;5109554;27;20047;-81
2023/01/23 00:30:08;;;;;;;6.00;2.33;;;2.90;99.90;;;;;;5070542;27;20054;-82
2023/01/23 00:32:34;;;;;;;6.30;2.50;;;2.80;99.90;;;;;;5099868;28;20063;-81
2023/01/23 00:35:00;;;;;;;4.32;2.30;;;2.80;99.90;;;;;;5093311;28;20187;-81
2023/01/23 00:37:26;;;;;;;5.57;2.50;;;2.80;99.90;;;;;;5065084;28;20067;-82
2023/01/23 00:39:52;;;;;;;6.32;2.55;;;;;;;;;;5096799;28;20051;-81
2023/01/23 00:42:18;;;;;;;4.60;2.40;;;2.80;99.90;;;;;;5101378;28;20043;-82
2023/01/23 00:44:45;;;;;;;4.85;2.45;;;2.80;99.90;;;;;;5086020;27;20381;-81
2023/01/23 00:47:11;;;;;;;6.00;2.50;;;2.80;99.90;;;;;;5099903;27;20427;-84
2023/01/23 00:49:37;;;;;;;5.70;2.58;;;2.80;99.90;;;;;;5087952;27;20047;-82
2023/01/23 00:52:03;;;;;;;8.10;2.78;;;2.80;99.90;;;;;;5090033;27;20412;-82
2023/01/23 00:54:37;;;;;;;4.88;2.30;;;2.80;99.90;;;;;;5075765;27;20043;-82
2023/01/23 00:57:03;;;;;;;7.15;2.60;;;2.80;99.90;;;;;;5086661;27;20504;-81
2023/01/23 00:59:29;;;;;;;6.90;2.72;;;3.50;99.90;;;;;;5083556;27;20048;-82
2023/01/23 01:01:55;;;;;;;5.90;2.50;;;2.80;99.90;;;;;;5098369;27;20396;-81
2023/01/23 01:04:21;;;;;;;3.80;2.22;;;2.80;99.90;;;;;;5084599;27;20158;-81
2023/01/23 01:06:46;;;;;;;8.05;2.80;;;2.80;99.90;;;;;;5115793;27;20122;-81
2023/01/23 01:09:12;;;;;;;6.28;2.72;;;2.80;99.90;;;;;;5088307;27;20534;-84
2023/01/23 01:11:38;;;;;;;4.70;2.60;;;2.80;99.90;;;;;;5073065;27;20088;-82
2023/01/23 01:14:04;;;;;;;5.80;2.85;;;2.90;99.90;;;;;;5114712;27;20043;-82
2023/01/23 01:16:30;;;;;;;4.07;2.70;;;2.80;99.90;;;;;;5081209;27;20511;-82
2023/01/23 01:18:56;;;;;;;6.25;2.95;;;2.80;99.90;;;;;;5089143;27;20090;-83
2023/01/23 01:21:23;;;;;;;6.25;2.67;;;2.80;99.90;;;;;;5071001;27;20096;-83
2023/01/23 01:23:49;;;;;;;5.50;2.70;;;2.80;99.90;;;;;;5086639;27;20055;-82
2023/01/23 01:26:15;;;;;;;4.05;2.38;;;2.80;99.90;;;;;;5089281;27;20050;-83
2023/01/23 01:28:42;;;;;;;6.70;2.92;;;2.80;99.90;;;;;;5116021;27;20052;-81
2023/01/23 01:31:13;;;;;;;11.15;2.50;;;2.80;99.90;;;;;;5069886;27;20047;-82
2023/01/23 01:33:41;;;;;;;8.63;2.45;;;2.80;99.90;;;;;;5104755;27;20090;-82
2023/01/23 01:36:12;;;;;;;6.72;2.28;;;2.80;99.90;;;;;;5076811;28;20517;-81
2023/01/23 01:38:38;;;;;;;5.47;2.45;;;3.00;99.90;;;;;;5083892;28;20113;-81
2023/01/23 01:41:05;;;;;;;7.70;3.28;;;3.00;99.90;;;;;;5078465;28;20044;-80
2023/01/23 01:43:32;;;;;;;5.53;2.53;;;1.60;99.90;;;;;;5069970;28;20063;-80
2023/01/23 01:46:07;;;;;;;5.55;2.45;;;3.50;99.90;;;;;;5094715;28;20044;-82
2023/01/23 01:49:00;;;;;;;6.20;2.60;;;2.80;99.90;;;;;;5081024;28;20067;-83
2023/01/23 01:51:33;;;;;;;4.72;2.65;;;2.80;99.90;;;;;;5086493;28;20048;-84
2023/01/23 01:54:37;;;;;;;7.53;3.38;;;2.80;99.90;;;;;;5086498;28;20044;-82
2023/01/23 01:57:15;;;;;;;6.20;2.38;;;2.80;99.90;;;;;;5078120;28;20036;-83
2023/01/23 01:59:46;;;;;;;6.25;2.60;;;2.80;99.90;;;;;;5083794;28;20051;-83
2023/01/23 02:02:16;;;;;;;6.82;2.75;;;2.80;99.90;;;;;;5099846;28;20491;-82
2023/01/23 02:05:04;;;;;;;9.93;2.92;;;2.80;99.90;;;;;;5103098;28;20040;-81
2023/01/23 02:08:12;;;;;;;7.60;2.67;;;1.70;99.90;;;;;;5076555;28;20081;-83
2023/01/23 02:10:39;;;;;;;;;;;2.80;99.90;;;;;;5083954;28;20051;-82
2023/01/23 02:13:38;;;;;;;5.38;2.80;;;2.90;99.90;;;;;;5079150;28;19924;-82
2023/01/23 02:16:20;;;;;;;6.50;2.72;;;2.90;99.90;;;;;;5074279;28;20090;-82
2023/01/23 02:18:53;;;;;;;8.23;3.40;;;1.30;99.90;;;;;;5085648;28;20052;-84
2023/01/23 02:21:23;;;;;;;5.20;3.08;;;2.90;99.90;;;;;;5096437;28;20101;-84
2023/01/23 02:24:11;;;;;;;7.07;3.22;;;2.90;99.90;;;;;;5078518;28;20068;-83
2023/01/23 02:26:42;;;;;;;7.72;3.40;;;2.70;99.90;;;;;;5093700;28;20047;-82
2023/01/23 02:29:09;;;;;;;7.70;3.47;;;2.90;99.90;;;;;;5084899;28;20047;-82
2023/01/23 02:31:36;;;;;;;7.32;3.80;;;2.90;99.90;;;;;;5077707;28;20069;-82
2023/01/23 02:34:03;;;;;;;9.90;4.22;;;2.90;99.90;;;;;;5073941;28;20074;-82
2023/01/23 02:36:32;;;;;;;5.35;3.28;;;2.90;99.90;;;;;;5081682;27;20079;-82
2023/01/23 02:39:09;;;;;;;6.13;3.30;;;3.30;99.90;;;;;;5113883;27;20080;-82
2023/01/23 02:41:36;;;;;;;;;;;3.00;99.90;;;;;;5113935;27;20496;-82
2023/01/23 02:44:24;;;;;;;7.60;3.50;;;2.90;99.90;;;;;;5116241;27;20406;-82
2023/01/23 02:46:50;;;;;;;8.45;3.58;;;2.90;99.90;;;;;;5100754;27;20036;-81
2023/01/23 02:49:16;;;;;;;9.00;3.67;;;3.80;99.90;;;;;;5084488;27;20496;-81
2023/01/23 02:51:42;;;;;;;8.20;4.00;;;1.60;99.90;;;;;;5067971;27;20050;-83
2023/01/23 02:54:08;;;;;;;11.98;3.80;;;2.90;99.90;;;;;;5096029;27;20088;-82
2023/01/23 02:56:34;;;;;;;7.97;3.75;;;2.80;99.90;;;;;;5077856;27;20552;-81
2023/01/23 03:01:45;;;;;;;8.82;4.13;;;3.00;99.90;;;;;;5085233;27;20107;-82
2023/01/23 03:04:16;;;;;;;6.85;3.83;;;2.80;99.90;;;;;;5083460;27;20058;-80
2023/01/23 03:06:42;;;;;;;10.00;4.18;;;2.90;99.90;;;;;;5095125;27;20385;-82
2023/01/23 03:09:11;;;;;;;8.18;3.72;;;2.80;99.90;;;;;;5084728;27;20412;-81
2023/01/23 03:11:39;;;;;;;8.65;4.22;;;3.10;99.90;;;;;;5101720;27;20039;-82
2023/01/23 03:14:07;;;;;;;8.68;4.05;;;2.80;99.90;;;;;;5098798;27;20547;-80
2023/01/23 03:16:33;;;;;;;8.65;4.00;;;2.80;99.90;;;;;;5101714;27;20040;-83
2023/01/23 03:19:04;;;;;;;8.63;3.72;;;3.80;99.90;;;;;;5082953;27;20043;-81
2023/01/23 03:21:41;;;;;;;6.78;3.65;;;2.80;99.90;;;;;;5069692;27;20067;-82
2023/01/23 03:24:09;;;;;;;8.85;3.97;;;2.80;99.90;;;;;;5112608;27;20044;-81
2023/01/23 03:26:40;;;;;;;8.57;4.07;;;2.90;99.90;;;;;;5095299;27;20058;-80
2023/01/23 03:31:51;;;;;;;7.53;4.00;;;;;;;;;;5111934;27;20047;-80
2023/01/23 03:34:23;;;;;;;6.85;3.63;;;2.80;99.90;;;;;;5095921;27;20449;-83
2023/01/23 03:36:49;;;;;;;9.70;3.90;;;2.80;99.90;;;;;;5095532;27;20055;-81
2023/01/23 03:42:00;;;;;;;11.65;4.40;;;2.70;99.90;;;;;;5099736;27;20039;-81
2023/01/23 03:44:26;;;;;;;7.93;3.90;;;2.70;99.90;;;;;;5068152;27;20055;-81
2023/01/23 03:46:53;;;;;;;6.05;3.72;;;2.80;99.90;;;;;;5086743;27;20039;-81
2023/01/23 03:49:19;;;;;;;8.13;3.90;;;;;;;;;;5088747;27;20040;-82
2023/01/23 03:51:45;;;;;;;9.77;3.83;;;2.70;99.90;;;;;;5100381;27;20120;-81
2023/01/23 03:54:17;;;;;;;8.75;3.53;;;2.70;99.90;;;;;;5100199;27;20047;-81
2023/01/23 03:56:43;;;;;;;6.00;3.25;;;2.70;99.90;;;;;;5104129;27;20105;-81
2023/01/23 03:59:15;;;;;;;7.00;3.30;;;2.70;99.90;;;;;;5087022;27;20488;-81
2023/01/23 04:01:41;;;;;;;6.13;3.00;;;2.70;99.90;;;;;;5097731;27;20109;-81
2023/01/23 04:04:07;;;;;;;4.25;3.00;;;2.90;99.90;;;;;;5112949;27;20039;-81
2023/01/23 04:06:34;;;;;;;7.65;2.70;;;2.70;99.90;;;;;;5088314;27;20127;-82
2023/01/23 04:09:04;;;;;;;5.25;2.67;;;2.70;99.90;;;;;;5100791;27;20051;-82
2023/01/23 04:11:30;;;;;;;5.53;2.65;;;2.70;99.90;;;;;;5084154;27;20047;-81
2023/01/23 04:13:55;;;;;;;6.03;2.40;;;2.80;99.90;;;;;;5099628;28;20392;-82
2023/01/23 04:16:22;;;;;;;5.70;2.90;;;1.30;99.90;;;;;;5100002;28;20043;-81
2023/01/23 04:18:51;;;;;;;5.80;2.80;;;2.70;99.90;;;;;;5101299;27;20466;-81
2023/01/23 04:21:17;;;;;;;4.90;3.10;;;;;;;;;;5088532;27;20131;-81
2023/01/23 04:23:43;;;;;;;5.07;2.63;;;2.70;99.90;;;;;;5097254;28;20606;-82
2023/01/23 04:26:09;;;;;;;5.05;2.58;;;2.70;99.90;;;;;;5068014;28;20079;-82
2023/01/23 04:28:35;;;;;;;5.85;2.80;;;3.10;99.90;;;;;;5067618;28;20078;-81
2023/01/23 04:31:01;;;;;;;6.85;3.30;;;2.70;99.90;;;;;;5071140;28;20126;-82
2023/01/23 04:33:27;;;;;;;6.28;3.03;;;2.60;99.90;;;;;;5089329;28;20044;-82
2023/01/23 04:35:55;;;;;;;7.00;3.47;;;2.70;99.90;;;;;;5089977;27;20445;-82
2023/01/23 04:38:27;;;;;;;6.32;3.10;;;2.70;99.90;;;;;;5115770;27;20069;-81
2023/01/23 04:40:53;;;;;;;6.57;3.47;;;2.70;99.90;;;;;;5082294;27;20051;-82
2023/01/23 04:43:19;;;;;;;5.95;3.17;;;2.70;99.90;;;;;;5107817;27;20601;-82
2023/01/23 04:45:45;;;;;;;5.32;3.25;;;2.60;99.90;;;;;;5100697;27;20043;-81
2023/01/23 04:48:12;;;;;;;7.25;3.75;;;2.70;99.90;;;;;;5101710;27;20122;-81
2023/01/23 04:50:38;;;;;;;7.15;3.42;;;3.20;99.90;;;;;;5104092;27;20127;-80
2023/01/23 04:53:04;;;;;;;6.35;3.95;;;2.70;99.90;;;;;;5089240;27;20125;-82
2023/01/23 04:55:30;;;;;;;6.38;3.53;;;2.70;99.90;;;;;;5105975;27;20602;-82
2023/01/23 04:57:56;;;;;;;8.15;3.63;;;2.70;99.90;;;;;;5101726;27;20043;-82
2023/01/23 05:00:22;;;;;;;8.15;4.15;;;1.60;99.90;;;;;;5074845;27;20045;-82
2023/01/23 05:02:50;;;;;;;7.72;3.90;;;2.70;99.90;;;;;;5070271;27;20114;-80
2023/01/23 05:05:19;;;;;;;7.00;4.22;;;2.70;99.90;;;;;;5104891;27;20081;-82
2023/01/23 05:07:46;;;;;;;6.47;3.60;;;2.70;99.90;;;;;;5107387;27;20149;-81
2023/01/23 05:10:13;;;;;;;10.40;4.40;;;2.90;99.90;;;;;;5106467;27;20195;-80
2023/01/23 05:12:39;;;;;;;8.13;3.72;;;2.60;99.90;;;;;;5109636;27;20149;-81
2023/01/23 05:15:06;;;;;;;5.05;3.30;;;2.60;99.90;;;;;;5104116;27;20059;-83
2023/01/23 05:17:32;;;;;;;6.13;3.53;;;2.70;99.90;;;;;;5086831;27;20499;-85
2023/01/23 05:19:58;;;;;;;7.60;3.90;;;2.70;99.90;;;;;;5099783;27;20046;-81
2023/01/23 05:22:24;;;;;;;7.00;3.90;;;2.70;99.90;;;;;;5089353;27;20038;-82
2023/01/23 05:24:50;;;;;;;8.70;3.95;;;2.70;99.90;;;;;;5106482;27;20492;-82
2023/01/23 05:27:15;;;;;;;6.60;3.55;;;2.70;99.90;;;;;;5113956;27;20077;-82
2023/01/23 05:29:41;;;;;;;7.70;3.58;;;2.70;99.90;;;;;;5081813;27;20054;-82
2023/01/23 05:32:07;;;;;;;8.70;3.55;;;2.60;99.90;;;;;;5100305;27;20510;-82
2023/01/23 05:34:33;;;;;;;7.95;3.53;;;2.50;99.90;;;;;;5104147;27;20078;-82
2023/01/23 05:36:59;;;;;;;5.30;3.22;;;3.20;99.90;;;;;;5077268;27;20082;-82
2023/01/23 05:39:25;;;;;;;6.95;3.30;;;2.70;99.90;;;;;;5077490;27;20134;-82
2023/01/23 05:41:51;;;;;;;7.78;3.60;;;2.60;99.90;;;;;;5084779;27;20039;-83
2023/01/23 05:44:16;;;;;;;5.38;3.17;;;2.60;99.90;;;;;;5089591;27;20043;-83
2023/01/23 05:46:43;;;;;;;7.25;3.50;;;2.60;99.90;;;;;;5083957;27;20138;-82
2023/01/23 05:49:16;;;;;;;10.60;3.70;;;2.60;99.90;;;;;;5093600;27;20046;-82
2023/01/23 05:51:42;;;;;;;6.88;3.88;;;4.40;99.90;;;;;;5102966;27;20074;-82
2023/01/23 05:54:09;;;;;;;5.13;3.42;;;2.40;99.90;;;;;;5071480;27;20188;-82
2023/01/23 05:56:38;;;;;;;6.32;3.67;;;2.40;99.90;;;;;;5089155;27;20035;-81
2023/01/23 05:59:04;;;;;;;5.28;3.70;;;2.60;99.90;;;;;;5117867;27;20046;-82
2023/01/23 06:01:31;;;;;;;7.22;3.85;;;2.60;99.90;;;;;;5105206;27;20050;-81
2023/01/23 06:03:58;;;;;;;6.80;3.70;;;2.50;99.90;;;;;;5104957;27;20038;-82
2023/01/23 06:06:24;;;;;;;5.15;3.92;;;2.60;99.90;;;;;;5102344;27;20046;-81
2023/01/23 06:08:50;;;;;;;8.25;3.42;;;3.90;99.90;;;;;;5117526;27;20054;-81
2023/01/23 06:11:16;;;;;;;9.20;3.50;;;2.90;99.90;;;;;;5088233;27;20058;-81
2023/01/23 06:13:42;;;;;;;11.75;4.10;;;2.60;99.90;;;;;;5092484;27;20671;-83
2023/01/23 06:16:08;;;;;;;8.27;4.40;;;2.60;99.90;;;;;;5100050;27;20057;-82
2023/01/23 06:18:34;;;;;;;7.03;3.63;;;2.70;99.90;;;;;;5093692;27;20562;-84
2023/01/23 06:21:01;;;;;;;5.90;3.42;;;2.50;99.90;;;;;;5118841;27;20158;-82
2023/01/23 06:23:27;;;;;;;8.60;3.70;;;2.80;99.90;;;;;;5101178;27;20051;-83
2023/01/23 06:25:57;;;;;;;6.40;4.07;;;2.50;99.90;;;;;;5098413;27;20058;-81
2023/01/23 06:28:23;;;;;;;7.95;3.92;;;2.60;99.90;;;;;;5108885;27;20484;-82
2023/01/23 06:30:49;;;;;;;7.38;4.10;;;3.50;99.90;;;;;;5103061;27;20046;-81
2023/01/23 06:33:15;;;;;;;9.88;3.95;;;3.00;99.90;;;;;;5070217;27;20050;-82
2023/01/23 06:35:40;;;;;;;7.97;4.25;;;2.50;99.90;;;;;;5086321;27;20500;-82
2023/01/23 06:38:06;;;;;;;8.00;4.32;;;2.50;99.90;;;;;;5094716;27;20046;-81
2023/01/23 06:40:33;;;;;;;11.18;4.13;;;2.50;99.90;;;;;;5106568;27;20127;-83
2023/01/23 06:43:00;;;;;;;10.07;4.15;;;2.50;99.90;;;;;;5083511;27;20042;-82
2023/01/23 06:45:26;;;;;;;7.75;4.20;;;2.50;99.90;;;;;;5088495;27;20047;-81
2023/01/23 06:47:52;;;;;;;6.10;4.50;;;2.60;99.90;;;;;;5101277;27;20905;-83
2023/01/23 06:50:21;;;;;;;8.43;4.43;;;2.40;99.90;;;;;;5120981;27;20107;-84
2023/01/23 06:52:47;;;;;;;8.85;4.68;;;2.50;99.90;;;;;;5074249;27;20601;-82
2023/01/23 06:55:12;;;;;;;8.20;4.07;;;2.50;99.90;;;;;;5074337;27;20086;-84
2023/01/23 06:57:41;;;;;;;8.52;4.35;;;3.30;99.90;;;;;;5101649;27;20075;-81
2023/01/23 07:00:08;;;;;;;11.10;5.32;;;2.50;99.90;;;;;;5073552;27;20155;-81
2023/01/23 07:02:36;;;;;;;9.73;4.97;;;2.40;99.90;;;;;;5090772;27;20047;-82
2023/01/23 07:05:02;;;;;;;12.98;5.45;;;2.50;99.90;;;;;;5103369;27;20042;-81
2023/01/23 07:07:28;;;;;;;9.73;5.07;;;2.50;99.90;;;;;;5095668;27;20502;-82
2023/01/23 07:09:54;;;;;;;8.40;5.05;;;3.50;99.90;;;;;;5070655;27;20051;-81
2023/01/23 07:12:19;;;;;;;8.70;5.25;;;2.40;99.90;;;;;;5102128;27;20046;-80
2023/01/23 07:14:45;;;;;;;8.40;5.15;;;2.40;99.90;;;;;;5087867;27;20126;-82
2023/01/23 07:17:11;;;;;;;10.13;5.15;;;2.50;99.90;;;;;;5076340;27;20118;-87
2023/01/23 07:19:37;;;;;;;9.50;5.63;;;2.40;99.90;;;;;;5078276;27;20039;-84
2023/01/23 07:22:17;;;;;;;8.88;4.95;;;2.40;99.90;;;;;;5108560;27;20055;-86
2023/01/23 07:24:43;;;;;;;11.10;5.45;;;2.40;99.90;;;;;;5124746;27;20041;-83
2023/01/23 07:27:09;;;;;;;10.77;5.30;;;2.70;99.90;;;;;;5106089;27;20043;-82
2023/01/23 07:29:35;;;;;;;10.75;6.22;;;2.50;99.90;;;;;;5086678;27;20134;-81
2023/01/23 07:32:04;;;;;;;10.52;5.75;;;2.50;99.90;;;;;;5092949;27;20043;-83
2023/01/23 07:34:30;;;;;;;10.32;6.47;;;2.40;99.90;;;;;;5070468;27;20373;-81
2023/01/23 07:36:56;;;;;;;9.60;5.65;;;2.40;99.90;;;;;;5073287;27;20055;-82
2023/01/23 07:39:27;;;;;;;10.63;6.38;;;2.40;99.90;;;;;;5120001;27;20058;-83
2023/01/23 07:41:53;;;;;;;14.02;6.43;;;2.70;99.90;;;;;;5102953;27;20497;-81
2023/01/23 07:44:21;;;;;;;8.60;5.78;;;2.70;99.90;;;;;;5092333;27;20078;-83
2023/01/23 07:46:48;;;;;;;8.55;6.15;;;2.40;99.90;;;;;;5116196;27;20051;-81
2023/01/23 07:49:15;;;;;;;13.10;6.43;;;2.40;99.90;;;;;;5117740;27;20054;-82
2023/01/23 07:51:41;;;;;;;13.15;7.10;;;2.40;99.90;;;;;;5103559;27;20042;-83
2023/01/23 07:54:07;;;;;;;14.45;7.88;;;2.50;99.90;;;;;;5101486;27;20127;-81
2023/01/23 07:56:33;;;;;;;11.50;6.55;;;2.60;99.90;;;;;;5101463;27;20038;-82
2023/01/23 07:58:59;;;;;;;11.27;6.63;;;2.50;99.90;;;;;;5090197;27;20054;-83
2023/01/23 08:01:27;;;;;;;13.82;7.22;;;2.40;99.90;;;;;;5102094;27;20043;-82
2023/01/23 08:03:53;;;;;;;10.65;6.60;;;2.40;99.90;;;;;;5107037;27;20035;-82
2023/01/23 08:06:25;;;;;;;12.27;6.85;;;2.40;99.90;;;;;;5106859;27;20527;-82
2023/01/23 08:08:51;;;;;;;12.57;7.65;;;2.70;99.90;;;;;;5102746;27;20070;-81
2023/01/23 08:11:18;;;;;;;12.45;7.32;;;1.20;99.90;;;;;;5081883;27;20074;-81
2023/01/23 08:13:48;;;;;;;12.95;7.25;;;2.60;99.90;;;;;;5098712;27;20046;-84
2023/01/23 08:16:14;;;;;;;11.57;7.20;;;2.50;99.90;;;;;;5106024;27;20570;-81
2023/01/23 08:18:39;;;;;;;12.35;7.25;;;3.20;99.90;;;;;;5091617;27;20126;-81
2023/01/23 08:21:06;;;;;;;15.85;7.93;;;2.50;99.90;;;;;;5100136;27;20039;-85
2023/01/23 08:23:45;;;;;;;13.32;7.78;;;2.80;99.90;;;;;;5079606;27;20050;-84
2023/01/23 08:26:52;;;;;;;13.40;8.10;;;1.50;99.90;;;;;;5114201;27;20122;-90
2023/01/23 08:29:38;;;;;;;11.67;7.33;;;2.60;99.90;;;;;;5109091;27;20047;-88
2023/01/23 08:32:04;;;;;;;13.98;7.78;;;2.60;99.90;;;;;;5093004;27;20308;-82
2023/01/23 08:34:33;;;;;;;11.85;7.38;;;2.60;99.90;;;;;;5134494;27;20047;-82
2023/01/23 08:37:05;;;;;;;14.98;7.60;;;2.60;99.90;;;;;;5087709;27;20054;-81
2023/01/23 08:39:31;;;;;;;15.23;8.65;;;2.60;99.90;;;;;;5093688;27;20050;-82
2023/01/23 08:41:57;;;;;;;12.63;7.65;;;2.70;99.90;;;;;;5101219;27;20046;-81
2023/01/23 08:44:26;;;;;;;11.63;7.25;;;2.70;99.90;;;;;;5105166;27;20042;-82
2023/01/23 08:46:51;;;;;;;13.65;7.28;;;3.00;99.90;;;;;;5088424;27;20054;-81
2023/01/23 08:49:19;;;;;;;12.75;7.40;;;1.70;99.90;;;;;;5104856;27;20039;-82
2023/01/23 08:51:45;;;;;;;12.85;7.57;;;2.90;99.90;;;;;;5086349;27;20126;-81
2023/01/23 08:54:11;;;;;;;11.18;7.22;;;2.70;99.90;;;;;;5087307;27;20047;-82
2023/01/23 08:56:37;;;;;;;12.23;6.78;;;2.70;99.90;;;;;;5086224;27;20092;-81
2023/01/23 08:59:03;;;;;;;13.13;6.88;;;2.70;99.90;;;;;;5069930;27;20130;-81
2023/01/23 09:01:28;;;;;;;11.55;7.13;;;2.80;99.90;;;;;;5088697;27;20070;-82
2023/01/23 09:03:55;;;;;;;11.05;6.90;;;2.80;99.90;;;;;;5090770;27;20047;-82
2023/01/23 09:06:25;;;;;;;11.95;7.60;;;2.80;99.90;;;;;;5101476;27;20054;-81
2023/01/23 09:08:51;;;;;;;12.60;7.43;;;2.80;99.90;;;;;;5119915;27;20050;-82
2023/01/23 09:11:18;;;;;;;13.38;7.57;;;3.00;99.90;;;;;;5119953;27;20084;-81
2023/01/23 09:13:45;;;;;;;14.00;7.68;;;2.80;99.90;;;;;;5087771;27;20044;-80
2023/01/23 09:16:11;;;;;;;12.95;7.60;;;3.00;99.90;;;;;;5096309;27;20084;-82
2023/01/23 09:18:37;;;;;;;16.15;8.23;;;3.10;99.90;;;;;;5088945;27;20050;-81
2023/01/23 09:21:09;;;;;;;13.02;8.02;;;2.90;99.90;;;;;;5108702;27;20092;-82
2023/01/23 09:23:35;;;;;;;12.95;8.55;;;2.90;99.90;;;;;;5113367;27;20065;-82
2023/01/23 09:26:09;;;;;;;12.68;7.55;;;2.90;99.90;;;;;;5109015;27;20043;-82
2023/01/23 09:28:37;;;;;;;15.65;8.50;;;3.10;99.90;;;;;;5112035;27;20443;-81
2023/01/23 09:31:06;;;;;;;14.93;8.70;;;3.00;99.90;;;;;;5121356;27;20129;-82
2023/01/23 09:33:37;;;;;;;13.32;7.93;;;3.00;99.90;;;;;;5114964;27;20051;-81
2023/01/23 09:36:04;;;;;;;13.25;8.52;;;3.10;99.90;;;;;;5094858;27;20057;-82
2023/01/23 09:38:32;;;;;;;17.05;8.07;;;3.10;99.90;;;;;;5120247;27;20510;-81
2023/01/23 09:41:05;;;;;;;14.02;7.95;;;3.10;99.90;;;;;;5108560;27;20440;-82
2023/01/23 09:43:31;;;;;;;12.35;7.72;;;3.60;99.90;;;;;;5107223;27;20097;-82
2023/01/23 09:46:20;;;;;;;14.82;8.02;;;3.20;99.90;;;;;;5111443;27;20488;-82
2023/01/23 09:48:57;;;;;;;14.70;7.93;;;3.10;99.90;;;;;;5108524;27;20094;-81
2023/01/23 09:51:51;;;;;;;12.07;7.97;;;3.20;99.90;;;;;;5102039;27;20046;-81
2023/01/23 09:54:42;;;;;;;14.63;8.43;;;3.20;99.90;;;;;;5102429;27;20103;-82
2023/01/23 09:57:38;;;;;;;13.35;7.93;;;3.30;99.90;;;;;;5095614;27;20054;-81
2023/01/23 10:00:18;;;;;;;15.57;7.90;;;3.20;99.90;;;;;;5105671;27;20061;-81
2023/01/23 10:02:45;;;;;;;15.30;8.48;;;3.30;99.90;;;;;;5100990;27;20043;-81
2023/01/23 10:05:17;;;;;;;12.60;8.30;;;3.30;99.90;;;;;;5083891;27;20078;-82
2023/01/23 10:07:49;;;;;;;13.27;7.82;;;3.30;99.90;;;;;;5108964;27;20043;-81
2023/01/23 10:10:39;;;;;;;10.85;7.30;;;3.30;99.90;;;;;;5102144;27;20547;-82
2023/01/23 10:13:47;;;;;;;13.80;7.82;;;3.30;99.90;;;;;;5107648;27;20149;-83
2023/01/23 10:16:31;;;;;;;11.40;7.30;;;3.30;99.90;;;;;;5107848;27;20035;-84
2023/01/23 10:19:09;;;;;;;11.00;7.30;;;3.30;99.90;;;;;;5101290;27;20047;-85
2023/01/23 10:21:42;;;;;;;13.50;7.68;;;3.40;99.90;;;;;;5108820;27;20484;-85
2023/01/23 10:24:11;;;;;;;12.23;7.28;;;3.40;99.90;;;;;;5101357;27;20058;-86
2023/01/23 10:26:42;;;;;;;12.13;6.95;;;3.40;99.90;;;;;;5105964;27;20044;-87
2023/01/23 10:29:36;;;;;;;12.15;7.43;;;3.50;99.90;;;;;;5092868;27;20050;-88
2023/01/23 10:32:29;;;;;;;12.10;7.90;;;3.60;99.90;;;;;;5117293;27;20035;-89
2023/01/23 10:35:50;;;;;;;10.45;7.68;;;3.70;99.90;;;;;;5107821;27;20050;-88
2023/01/23 10:39:17;;;;;;;11.73;7.00;;;3.50;99.90;;;;;;5049811;28;20383;-87
2023/01/23 10:41:51;;;;;;;12.43;6.88;;;3.50;99.90;;;;;;5081575;28;20078;-87
2023/01/23 10:44:26;;;;;;;13.52;7.30;;;3.60;99.90;;;;;;5082743;28;20174;-86
2023/01/23 10:47:11;;;;;;;12.60;7.13;;;3.80;99.90;;;;;;5087879;28;20047;-86
2023/01/23 10:50:06;;;;;;;12.43;7.38;;;3.60;99.90;;;;;;5082270;28;20048;-86
2023/01/23 10:52:40;;;;;;;10.93;7.00;;;4.80;99.90;;;;;;5084326;28;20040;-88
2023/01/23 10:55:18;;;;;;;9.57;7.35;;;3.60;99.90;;;;;;5084366;28;20062;-85
2023/01/23 10:58:05;;;;;;;;;;;;;;;;;;;;;
2023/01/23 11:00:48;;;;;;;13.77;7.07;;;3.90;99.90;;;;;;5098147;28;20040;-86
2023/01/23 11:03:20;;;;;;;13.30;7.22;;;3.70;99.90;;;;;;5080790;28;20051;-82
2023/01/23 11:05:55;;;;;;;14.80;7.90;;;3.70;99.90;;;;;;5081170;28;20067;-81
2023/01/23 11:08:59;;;;;;;13.38;7.45;;;3.80;99.90;;;;;;5085837;28;20055;-81
2023/01/23 11:11:26;;;;;;;12.68;6.93;;;3.80;99.90;;;;;;5098524;28;20043;-83
2023/01/23 11:14:20;;;;;;;13.00;7.72;;;3.80;99.90;;;;;;5082854;28;20055;-81
2023/01/23 11:17:02;;;;;;;10.98;7.10;;;3.90;99.90;;;;;;5082093;28;20043;-83
2023/01/23 11:19:31;;;;;;;13.00;7.88;;;3.90;99.90;;;;;;5081975;28;20052;-82
2023/01/23 11:22:02;;;;;;;16.40;7.93;;;4.30;99.90;;;;;;5095890;28;20047;-86
2023/01/23 11:24:31;;;;;;;14.93;7.32;;;3.20;99.90;;;;;;5085306;28;20063;-82
2023/01/23 11:27:26;;;;;;;14.10;7.70;;;4.00;99.90;;;;;;5091744;28;20043;-85
2023/01/23 11:30:57;;;;;;;12.07;7.88;;;4.10;99.90;;;;;;5081917;28;20056;-82
2023/01/23 11:33:51;;;;;;;11.48;7.60;;;4.20;99.90;;;;;;5016731;28;20049;-81
2023/01/23 11:36:17;;;;;;;18.08;8.65;;;4.20;99.90;;;;;;5022056;28;20159;-87
2023/01/23 11:39:08;;;;;;;14.82;8.35;;;4.20;99.90;;;;;;5047190;28;20082;-85
2023/01/23 11:41:38;;;;;;;12.88;8.43;;;4.30;99.90;;;;;;5051521;28;20064;-84
2023/01/23 11:44:15;;;;;;;13.35;7.50;;;4.30;99.90;;;;;;5050288;28;20048;-83
2023/01/23 11:46:59;;;;;;;12.27;7.80;;;4.30;99.90;;;;;;5051493;28;20101;-82
2023/01/23 11:49:44;;;;;;;11.30;7.43;;;4.40;99.90;;;;;;5044070;28;20052;-85
2023/01/23 11:52:43;;;;;;;10.82;6.68;;;4.40;99.90;;;;;;5046906;28;20074;-84
2023/01/23 11:55:20;;;;;;;11.95;7.22;;;4.50;99.90;;;;;;5046401;28;20127;-82
2023/01/23 11:58:13;;;;;;;11.07;6.40;;;4.50;99.90;;;;;;5045048;28;20055;-82
2023/01/23 12:00:58;;;;;;;11.93;6.40;;;4.50;99.90;;;;;;5043408;28;20130;-82
2023/01/23 12:03:26;;;;;;;10.32;6.85;;;4.50;99.90;;;;;;5058495;27;20127;-82
2023/01/23 12:06:08;;;;;;;10.45;7.07;;;4.60;99.90;;;;;;5113923;27;20082;-82
2023/01/23 12:08:53;;;;;;;10.00;6.55;;;4.60;99.90;;;;;;5094640;28;20078;-82
2023/01/23 12:11:23;;;;;;;8.93;5.72;;;4.60;99.90;;;;;;5102285;27;20053;-81
2023/01/23 12:14:17;;;;;;;8.77;6.15;;;4.70;99.90;;;;;;5104465;27;20043;-82
2023/01/23 12:16:52;;;;;;;8.57;5.22;;;4.70;99.90;;;;;;5097485;28;20043;-84
2023/01/23 12:19:59;;;;;;;8.80;5.03;;;4.60;99.90;;;;;;5101983;27;20043;-82
2023/01/23 12:22:34;;;;;;;6.03;4.50;;;4.70;99.90;;;;;;5096709;28;20091;-82
2023/01/23 12:25:05;;;;;;;6.53;4.20;;;3.80;99.90;;;;;;5104660;27;20050;-82
2023/01/23 12:27:48;;;;;;;9.80;4.47;;;4.70;99.90;;;;;;5101313;28;20041;-82
2023/01/23 12:30:36;;;;;;;5.95;4.28;;;4.60;99.90;;;;;;5129682;27;20055;-82
2023/01/23 12:33:22;;;;;;;5.10;3.67;;;4.60;99.90;;;;;;5096860;28;20035;-85
2023/01/23 12:36:03;;;;;;;4.57;3.55;;;4.60;99.90;;;;;;5099299;28;20524;-82
2023/01/23 12:38:39;;;;;;;4.30;3.40;;;4.50;99.90;;;;;;5115103;27;20496;-82
2023/01/23 12:41:12;;;;;;;4.45;3.60;;;4.40;99.90;;;;;;5102682;28;20416;-83
2023/01/23 12:43:58;;;;;;;4.80;3.42;;;4.40;99.90;;;;;;5096984;28;20454;-82
2023/01/23 12:46:42;;;;;;;4.90;3.83;;;4.40;99.90;;;;;;5096421;28;20051;-82
2023/01/23 12:49:36;;;;;;;4.90;3.53;;;3.30;99.90;;;;;;5103083;28;20092;-83
2023/01/23 12:52:13;;;;;;;4.45;3.58;;;4.40;99.90;;;;;;5105169;28;20388;-83
2023/01/23 12:55:02;;;;;;;5.18;3.90;;;4.40;99.90;;;;;;5101045;28;20104;-82
2023/01/23 12:57:40;;;;;;;4.40;3.38;;;3.50;99.90;;;;;;5098487;28;20039;-82
2023/01/23 13:00:09;;;;;;;5.55;4.10;;;4.40;99.90;;;;;;5086359;28;20112;-85
2023/01/23 13:02:52;;;;;;;5.32;3.60;;;4.40;99.90;;;;;;5111145;27;20542;-83
2023/01/23 13:05:29;;;;;;;7.07;3.80;;;4.40;99.90;;;;;;5111191;28;20511;-82
2023/01/23 13:08:20;;;;;;;4.70;3.17;;;4.40;99.90;;;;;;5101757;28;20586;-81
2023/01/23 13:13:33;;;;;;;5.47;3.10;;;4.40;99.90;;;;;;5111874;27;20051;-82
2023/01/23 13:16:08;;;;;;;4.22;3.13;;;4.40;99.90;;;;;;5086652;28;20109;-82
2023/01/23 13:21:59;;;;;;;4.75;2.60;;;4.40;99.90;;;;;;5101715;28;20476;-82
2023/01/23 13:27:44;;;;;;;3.97;2.80;;;4.30;99.90;;;;;;5047208;27;20048;-83
2023/01/23 13:30:25;;;;;;;4.90;2.60;;;4.40;99.90;;;;;;5100335;27;20040;-83
2023/01/23 13:33:14;;;;;;;3.95;2.70;;;3.80;99.90;;;;;;5100193;27;20070;-82
2023/01/23 13:35:47;;;;;;;4.13;2.38;;;2.80;99.90;;;;;;5123999;27;20075;-83
2023/01/23 13:38:28;;;;;;;3.28;2.22;;;4.40;99.90;;;;;;5097243;27;20508;-84